Time;durP1;ratioP1;P1;durP2;ratioP2;P2;SDS_P1;SDS_P2;PMS_P1;PMS_P2;Temp;Humidity;BMP_temperature;BMP_pressure;BME280_temperature;BME280_humidity;BME280_pressure;Samples;Min_cycle;Max_cycle;Signal;HPM_P1;HPM_P2
2021/12/17 00:04:39;;;;;;;20.85;7.65;;;8.50;99.90;;;;;;5046859;28;20112;-85
2021/12/17 00:07:08;;;;;;;21.88;7.75;;;8.50;99.90;;;;;;5044049;28;20041;-86
2021/12/17 00:09:34;;;;;;;22.15;7.63;;;8.80;99.90;;;;;;5028820;28;20136;-86
2021/12/17 00:12:00;;;;;;;21.02;7.68;;;10.10;99.90;;;;;;5059800;28;20554;-86
2021/12/17 00:14:28;;;;;;;22.50;8.05;;;8.50;99.90;;;;;;5029166;28;20045;-86
2021/12/17 00:16:58;;;;;;;28.65;8.00;;;8.50;99.90;;;;;;5045866;28;20073;-85
2021/12/17 00:19:46;;;;;;;23.52;8.80;;;8.50;99.90;;;;;;5027938;28;20047;-85
2021/12/17 00:49:49;;;;;;;10.90;3.38;;;8.40;99.90;;;;;;5044754;28;20117;-85
2021/12/17 00:52:15;;;;;;;9.68;3.88;;;8.90;99.90;;;;;;5044605;28;20119;-84
2021/12/17 00:54:43;;;;;;;8.90;3.42;;;8.30;99.90;;;;;;5044282;28;20049;-84
2021/12/17 00:57:11;;;;;;;7.57;2.95;;;8.40;99.90;;;;;;5044697;28;20041;-85
2021/12/17 00:59:39;;;;;;;10.02;2.38;;;9.80;99.90;;;;;;5043805;28;20045;-85
2021/12/17 01:02:09;;;;;;;8.48;3.20;;;9.50;99.90;;;;;;5045543;28;20056;-84
2021/12/17 01:04:37;;;;;;;6.30;2.67;;;8.30;99.90;;;;;;5044895;28;20088;-85
2021/12/17 01:07:05;;;;;;;7.15;3.33;;;8.30;99.90;;;;;;5042539;28;20048;-85
2021/12/17 01:09:31;;;;;;;8.63;3.38;;;9.60;99.90;;;;;;5044110;28;20049;-84
2021/12/17 01:11:58;;;;;;;10.50;3.92;;;10.10;99.90;;;;;;5058783;28;20037;-85
2021/12/17 01:14:27;;;;;;;8.55;3.78;;;8.20;99.90;;;;;;5044621;28;20060;-85
2021/12/17 01:16:53;;;;;;;10.68;4.60;;;8.20;99.90;;;;;;5043688;28;20408;-85
2021/12/17 01:19:44;;;;;;;8.98;3.10;;;8.10;99.90;;;;;;5043114;28;20051;-85
2021/12/17 01:35:28;;;;;;;4.68;2.20;;;8.00;99.90;;;;;;5043949;28;20055;-85
2021/12/17 01:43:01;;;;;;;7.70;2.75;;;8.00;99.90;;;;;;5060679;28;20423;-85
2021/12/17 01:45:31;;;;;;;9.73;2.95;;;8.00;99.90;;;;;;5058644;28;20066;-85
2021/12/17 01:48:00;;;;;;;5.95;2.25;;;8.50;99.90;;;;;;5027786;28;20072;-84
2021/12/17 01:56:17;;;;;;;3.63;2.03;;;8.00;99.90;;;;;;5058395;28;20052;-85
2021/12/17 02:01:29;;;;;;;5.32;2.42;;;8.00;99.90;;;;;;5043741;28;20684;-84
2021/12/17 02:03:56;;;;;;;4.78;2.15;;;8.00;99.90;;;;;;5043948;28;20037;-85
2021/12/17 02:06:23;;;;;;;4.85;2.05;;;9.00;99.90;;;;;;5042250;28;20504;-85
2021/12/17 02:08:51;;;;;;;6.80;2.13;;;8.00;99.90;;;;;;5043358;28;20041;-85
2021/12/17 02:32:34;;;;;;;3.03;1.77;;;8.00;99.90;;;;;;5042531;28;20161;-85
2021/12/17 02:35:20;;;;;;;3.17;1.33;;;8.00;99.90;;;;;;5043411;28;20116;-85
2021/12/17 02:37:48;;;;;;;3.90;1.88;;;8.40;99.90;;;;;;5040861;28;20059;-84
2021/12/17 02:45:32;;;;;;;3.50;2.00;;;7.90;99.90;;;;;;5042334;28;20049;-85
2021/12/17 02:45:32;;;;;;;4.75;2.10;;;7.90;99.90;;;;;;5042507;28;20514;-85
2021/12/17 02:48:13;;;;;;;5.28;2.20;;;8.90;99.90;;;;;;5026436;28;20128;-85
2021/12/17 02:50:51;;;;;;;5.80;2.13;;;7.80;99.90;;;;;;5042807;28;20601;-85
2021/12/17 02:53:19;;;;;;;4.03;1.88;;;7.80;99.90;;;;;;5042142;28;20579;-85
2021/12/17 02:56:04;;;;;;;4.57;2.55;;;8.90;99.90;;;;;;5044180;28;20120;-85
2021/12/17 02:58:32;;;;;;;3.17;1.75;;;7.80;99.90;;;;;;5040734;28;20048;-85
2021/12/17 03:01:00;;;;;;;3.97;2.42;;;7.80;99.90;;;;;;5042753;28;20049;-85
2021/12/17 03:03:27;;;;;;;5.43;2.88;;;9.30;99.90;;;;;;5024205;28;20044;-85
2021/12/17 03:05:54;;;;;;;4.68;2.47;;;9.20;99.90;;;;;;5044193;28;20045;-85
2021/12/17 03:08:21;;;;;;;3.58;2.30;;;7.80;99.90;;;;;;5043852;28;20118;-85
2021/12/17 03:10:50;;;;;;;3.28;2.35;;;7.80;99.90;;;;;;5041029;28;20132;-84
2021/12/17 03:13:20;;;;;;;4.03;2.10;;;7.80;99.90;;;;;;5042545;28;20087;-84
2021/12/17 03:15:52;;;;;;;5.63;2.00;;;7.80;99.90;;;;;;5057342;28;20037;-85
2021/12/17 03:23:40;;;;;;;3.83;2.00;;;7.90;99.90;;;;;;5044043;28;20080;-85
2021/12/17 03:26:14;;;;;;;3.33;1.98;;;8.40;99.90;;;;;;5043494;28;20120;-85
2021/12/17 03:28:43;;;;;;;3.58;1.98;;;7.90;99.90;;;;;;5024875;28;20166;-84
2021/12/17 03:31:10;;;;;;;3.15;1.88;;;7.90;99.90;;;;;;5025946;28;20029;-85
2021/12/17 03:33:40;;;;;;;1.75;1.20;;;8.00;99.90;;;;;;5040789;28;20083;-84
2021/12/17 03:36:06;;;;;;;3.72;1.92;;;8.00;99.90;;;;;;5043314;28;20044;-85
2021/12/17 03:38:32;;;;;;;3.53;2.05;;;8.00;99.90;;;;;;5062395;28;20399;-85
2021/12/17 03:41:17;;;;;;;3.45;2.20;;;8.00;99.90;;;;;;5044638;28;20049;-85
2021/12/17 03:43:44;;;;;;;2.63;1.77;;;8.00;99.90;;;;;;5046112;28;20041;-84
2021/12/17 03:46:10;;;;;;;4.10;2.00;;;8.10;99.90;;;;;;5044052;28;20277;-84
2021/12/17 03:48:38;;;;;;;4.45;1.90;;;8.10;99.90;;;;;;5046490;28;20045;-84
2021/12/17 03:51:05;;;;;;;2.85;1.80;;;9.40;99.90;;;;;;5046153;28;20080;-85
2021/12/17 03:53:31;;;;;;;4.32;2.13;;;8.10;99.90;;;;;;5045967;28;20048;-84
2021/12/17 03:55:57;;;;;;;4.20;1.52;;;8.10;99.90;;;;;;5029564;28;20520;-84
2021/12/17 03:58:23;;;;;;;3.33;1.70;;;8.10;99.90;;;;;;5044348;28;20037;-84
2021/12/17 04:00:49;;;;;;;2.95;1.63;;;8.10;99.90;;;;;;5046255;28;20509;-84
2021/12/17 04:03:15;;;;;;;4.38;2.17;;;8.10;99.90;;;;;;5027041;28;20044;-84
2021/12/17 04:05:41;;;;;;;2.55;1.30;;;8.10;99.90;;;;;;5047256;28;20442;-85
2021/12/17 04:08:07;;;;;;;2.97;1.27;;;8.10;99.90;;;;;;5045384;28;20040;-84
2021/12/17 04:10:41;;;;;;;2.80;1.38;;;8.10;99.90;;;;;;5044530;28;20136;-84
2021/12/17 04:13:40;;;;;;;3.85;1.55;;;8.70;99.90;;;;;;5045517;28;20103;-85
2021/12/17 04:16:03;;;;;;;4.70;1.73;;;8.60;99.90;;;;;;5043494;28;20053;-84
2021/12/17 04:18:30;;;;;;;3.67;1.70;;;8.10;99.90;;;;;;5045815;28;20091;-85
2021/12/17 04:20:59;;;;;;;3.97;2.00;;;8.10;99.90;;;;;;5044296;28;20053;-85
2021/12/17 04:23:25;;;;;;;4.13;2.15;;;8.10;99.90;;;;;;5045773;28;20091;-85
2021/12/17 04:25:51;;;;;;;3.67;2.20;;;8.10;99.90;;;;;;5047316;28;20441;-84
2021/12/17 04:28:18;;;;;;;2.72;1.98;;;8.10;99.90;;;;;;5043094;28;20055;-85
2021/12/17 04:30:45;;;;;;;4.68;2.60;;;8.20;99.90;;;;;;5045952;28;20077;-84
2021/12/17 04:33:12;;;;;;;4.85;2.67;;;8.10;99.90;;;;;;5042918;28;20056;-84
2021/12/17 04:35:39;;;;;;;4.72;2.35;;;8.10;99.90;;;;;;5044896;28;20518;-84
2021/12/17 04:38:07;;;;;;;5.13;2.15;;;8.10;99.90;;;;;;5043887;28;20057;-84
2021/12/17 04:40:35;;;;;;;4.80;2.42;;;8.10;99.90;;;;;;5043657;28;20199;-84
2021/12/17 04:43:14;;;;;;;5.82;3.25;;;9.50;99.90;;;;;;5046104;28;20482;-84
2021/12/17 04:45:47;;;;;;;5.50;3.17;;;9.80;99.90;;;;;;5058636;28;20045;-84
2021/12/17 04:59:12;;;;;;;6.00;3.35;;;8.10;99.90;;;;;;5043273;28;20064;-84
2021/12/17 05:01:37;;;;;;;16.88;4.53;;;8.10;99.90;;;;;;5027258;28;20052;-85
2021/12/17 05:04:03;;;;;;;7.57;3.90;;;8.10;99.90;;;;;;5044103;28;20342;-84
2021/12/17 05:06:30;;;;;;;7.38;4.07;;;8.10;99.90;;;;;;5042840;28;20075;-85
2021/12/17 05:09:03;;;;;;;7.97;4.00;;;9.40;99.90;;;;;;5027936;28;20496;-84
2021/12/17 05:19:46;;;;;;;8.05;4.82;;;8.10;99.90;;;;;;5042139;28;20126;-85
2021/12/17 05:22:13;;;;;;;11.70;4.55;;;8.70;99.90;;;;;;5045539;28;20087;-85
2021/12/17 05:24:39;;;;;;;8.85;4.50;;;8.10;99.90;;;;;;5058813;28;20045;-86
2021/12/17 05:27:05;;;;;;;9.45;4.43;;;8.10;99.90;;;;;;5044462;28;20133;-86
2021/12/17 05:29:31;;;;;;;9.70;5.00;;;8.10;99.90;;;;;;5026987;28;20398;-86
2021/12/17 05:31:56;;;;;;;11.45;4.65;;;8.50;99.90;;;;;;5042484;28;20052;-86
2021/12/17 05:34:22;;;;;;;9.63;5.15;;;8.90;99.90;;;;;;5043887;28;20090;-87
2021/12/17 05:36:48;;;;;;;13.77;5.65;;;9.70;99.90;;;;;;5042134;28;20048;-86
2021/12/17 05:39:14;;;;;;;9.63;4.93;;;8.10;99.90;;;;;;5043041;28;20052;-86
2021/12/17 05:41:40;;;;;;;11.90;5.22;;;8.10;99.90;;;;;;5025237;28;20575;-85
2021/12/17 05:44:06;;;;;;;8.55;5.03;;;9.80;99.90;;;;;;5044132;28;20053;-85
2021/12/17 05:46:49;;;;;;;12.13;5.53;;;8.10;99.90;;;;;;5042667;28;20132;-84
2021/12/17 05:49:26;;;;;;;10.10;4.85;;;8.40;99.90;;;;;;5025190;28;20051;-85
2021/12/17 05:51:53;;;;;;;12.43;5.45;;;8.20;99.90;;;;;;5043244;28;20512;-86
2021/12/17 05:54:20;;;;;;;9.65;4.47;;;8.10;99.90;;;;;;5041356;28;20558;-84
2021/12/17 05:56:46;;;;;;;15.27;5.43;;;8.60;99.90;;;;;;5027055;28;20037;-84
2021/12/17 05:59:12;;;;;;;11.35;5.00;;;8.90;99.90;;;;;;5058565;28;20056;-83
2021/12/17 06:01:38;;;;;;;12.65;5.47;;;8.10;99.90;;;;;;5042744;28;20040;-83
2021/12/17 06:04:04;;;;;;;13.50;5.97;;;8.30;99.90;;;;;;5044204;28;20049;-83
2021/12/17 06:06:31;;;;;;;10.80;5.05;;;9.80;99.90;;;;;;5042601;28;20052;-84
2021/12/17 06:08:57;;;;;;;14.35;5.65;;;8.90;99.90;;;;;;5044590;28;20496;-85
2021/12/17 06:11:23;;;;;;;11.27;5.85;;;8.10;99.90;;;;;;5025787;28;20752;-85
2021/12/17 06:13:49;;;;;;;11.35;5.60;;;8.10;99.90;;;;;;5027592;28;20068;-88
2021/12/17 06:16:15;;;;;;;12.43;5.40;;;10.20;99.90;;;;;;5026615;28;20104;-85
2021/12/17 06:18:41;;;;;;;12.40;5.47;;;8.10;99.90;;;;;;5027008;28;20045;-86
2021/12/17 06:21:07;;;;;;;13.65;5.97;;;9.90;99.90;;;;;;5043112;28;20041;-85
2021/12/17 06:23:32;;;;;;;12.20;5.80;;;8.00;99.90;;;;;;5041315;28;20068;-86
2021/12/17 06:25:58;;;;;;;12.07;5.45;;;10.00;99.90;;;;;;5027248;28;20137;-87
2021/12/17 06:28:24;;;;;;;13.07;5.57;;;8.00;99.90;;;;;;5024517;28;20044;-86
2021/12/17 06:30:49;;;;;;;13.88;6.53;;;9.60;99.90;;;;;;5043205;28;20518;-87
2021/12/17 06:33:15;;;;;;;12.55;5.55;;;8.30;99.90;;;;;;5041192;28;20052;-85
2021/12/17 06:35:44;;;;;;;12.45;5.22;;;9.00;99.90;;;;;;5044409;28;20127;-85
2021/12/17 06:38:09;;;;;;;9.60;5.10;;;8.00;99.90;;;;;;5059622;28;20118;-82
2021/12/17 06:40:35;;;;;;;12.43;5.93;;;7.90;99.90;;;;;;5041318;28;20045;-84
2021/12/17 06:43:01;;;;;;;14.43;5.53;;;8.60;99.90;;;;;;5026927;28;20098;-86
2021/12/17 06:48:23;;;;;;;19.00;6.47;;;8.50;99.90;;;;;;5043185;28;20041;-86
2021/12/17 07:07:55;;;;;;;18.88;6.50;;;7.90;99.90;;;;;;5040588;28;20052;-85
2021/12/17 07:20:56;;;;;;;14.65;5.72;;;8.00;99.90;;;;;;5044747;28;20049;-86
2021/12/17 07:23:17;;;;;;;17.60;6.60;;;9.30;99.90;;;;;;5058037;28;20040;-85
2021/12/17 07:33:46;;;;;;;17.13;5.55;;;8.00;99.90;;;;;;5045805;28;20049;-82
2021/12/17 07:36:15;;;;;;;23.75;7.05;;;9.40;99.90;;;;;;5045829;28;20178;-84
2021/12/17 07:38:48;;;;;;;15.63;6.03;;;8.90;99.90;;;;;;5045968;28;20057;-83
2021/12/17 07:41:14;;;;;;;20.35;6.82;;;8.10;99.90;;;;;;5044364;28;20532;-83
2021/12/17 07:43:50;;;;;;;14.77;5.68;;;8.10;99.90;;;;;;5047674;28;20175;-86
2021/12/17 07:46:17;;;;;;;12.57;5.88;;;8.10;99.90;;;;;;5028009;28;20555;-86
2021/12/17 07:48:43;;;;;;;13.52;5.97;;;8.40;99.90;;;;;;5044043;28;20049;-86
2021/12/17 07:51:13;;;;;;;11.90;5.10;;;8.50;99.90;;;;;;5045904;28;20159;-86
2021/12/17 07:53:39;;;;;;;15.32;6.50;;;8.20;99.90;;;;;;5043540;28;20077;-87
2021/12/17 07:56:07;;;;;;;12.10;5.50;;;8.20;99.90;;;;;;5045875;28;20447;-86
2021/12/17 07:58:33;;;;;;;12.10;5.57;;;8.20;99.90;;;;;;5027478;28;20404;-86
2021/12/17 08:01:00;;;;;;;12.73;5.93;;;8.80;99.90;;;;;;5029486;28;20047;-83
2021/12/17 08:03:26;;;;;;;11.93;6.18;;;8.20;99.90;;;;;;5061974;28;20083;-86
2021/12/17 08:05:52;;;;;;;15.70;6.53;;;8.20;99.90;;;;;;5045579;28;20094;-84
2021/12/17 08:08:19;;;;;;;14.02;5.85;;;8.30;99.90;;;;;;5028958;28;20131;-86
2021/12/17 08:10:47;;;;;;;13.52;6.35;;;8.20;99.90;;;;;;5026489;28;20443;-86
2021/12/17 08:13:22;;;;;;;15.75;6.10;;;8.20;99.90;;;;;;5045326;28;20508;-86
2021/12/17 08:16:14;;;;;;;14.30;5.93;;;10.00;99.90;;;;;;5044401;28;20037;-87
2021/12/17 08:31:36;;;;;;;16.35;6.07;;;8.30;99.90;;;;;;5050788;28;20518;-89
2021/12/17 08:34:04;;;;;;;15.98;6.07;;;8.30;99.90;;;;;;5038880;28;20045;-92
2021/12/17 08:36:31;;;;;;;12.48;5.88;;;10.00;99.90;;;;;;5040945;28;20074;-90
2021/12/17 08:38:57;;;;;;;11.00;6.35;;;8.40;99.90;;;;;;5037186;28;20464;-86
2021/12/17 08:41:23;;;;;;;16.42;6.55;;;8.40;99.90;;;;;;5033409;28;20040;-88
2021/12/17 08:43:49;;;;;;;13.27;5.82;;;8.40;99.90;;;;;;5032016;28;20052;-88
2021/12/17 08:46:15;;;;;;;17.00;7.55;;;8.40;99.90;;;;;;5029076;28;20044;-84
2021/12/17 08:48:41;;;;;;;17.67;6.68;;;9.70;99.90;;;;;;5029018;28;20037;-89
2021/12/17 08:51:09;;;;;;;11.98;6.25;;;8.60;99.90;;;;;;5045271;28;20045;-85
2021/12/17 08:53:36;;;;;;;13.15;6.45;;;8.50;99.90;;;;;;5044392;28;20412;-88
2021/12/17 08:56:06;;;;;;;14.35;6.15;;;8.80;99.90;;;;;;5044361;28;20041;-87
2021/12/17 08:58:33;;;;;;;17.92;6.32;;;8.70;99.90;;;;;;5027029;28;20461;-88
2021/12/17 09:01:04;;;;;;;13.80;5.85;;;8.50;99.90;;;;;;5028458;28;20049;-90
2021/12/17 09:03:32;;;;;;;15.82;6.82;;;8.50;99.90;;;;;;5026545;28;20045;-90
2021/12/17 09:05:58;;;;;;;12.60;6.07;;;8.50;99.90;;;;;;5042956;28;20051;-86
2021/12/17 09:08:24;;;;;;;18.15;7.07;;;10.00;99.90;;;;;;5028214;28;20045;-87
2021/12/17 09:10:55;;;;;;;14.73;5.88;;;9.40;99.90;;;;;;5042202;28;20049;-89
2021/12/17 09:13:25;;;;;;;13.18;6.40;;;8.60;99.90;;;;;;5045805;28;20416;-91
2021/12/17 09:15:55;;;;;;;12.77;5.45;;;8.70;99.90;;;;;;5026125;28;20052;-85
2021/12/17 09:18:21;;;;;;;16.52;6.82;;;8.70;99.90;;;;;;5045342;28;20049;-84
2021/12/17 09:20:47;;;;;;;14.63;6.60;;;10.60;99.90;;;;;;5044926;28;20524;-84
2021/12/17 09:23:13;;;;;;;14.05;6.43;;;8.70;99.90;;;;;;5043553;28;20037;-84
2021/12/17 09:25:39;;;;;;;13.75;5.95;;;8.90;99.90;;;;;;5044188;28;20132;-84
2021/12/17 09:28:05;;;;;;;11.55;5.15;;;8.80;99.90;;;;;;5043281;28;20056;-84
2021/12/17 09:30:31;;;;;;;12.13;5.50;;;8.80;99.90;;;;;;5045336;28;20480;-84
2021/12/17 09:32:57;;;;;;;14.15;5.70;;;8.80;99.90;;;;;;5042098;28;20424;-84
2021/12/17 09:35:24;;;;;;;10.70;6.35;;;8.80;99.90;;;;;;5045508;28;20044;-84
2021/12/17 09:37:51;;;;;;;9.10;4.85;;;8.80;99.90;;;;;;5044799;28;20570;-84
2021/12/17 09:40:18;;;;;;;13.85;6.15;;;8.80;99.90;;;;;;5044250;28;20045;-84
2021/12/17 09:42:45;;;;;;;11.32;6.20;;;10.40;99.90;;;;;;5043842;28;20055;-84
2021/12/17 09:45:13;;;;;;;14.32;6.15;;;8.90;99.90;;;;;;5042787;28;20053;-83
2021/12/17 09:47:50;;;;;;;12.30;5.88;;;8.90;99.90;;;;;;5044320;28;20554;-85
2021/12/17 09:50:19;;;;;;;12.30;5.25;;;8.80;99.90;;;;;;5025336;28;20049;-84
2021/12/17 09:52:45;;;;;;;10.85;5.55;;;8.90;99.90;;;;;;5042960;28;20492;-84
2021/12/17 09:55:11;;;;;;;10.73;6.00;;;8.90;99.90;;;;;;5043508;28;20080;-84
2021/12/17 09:57:37;;;;;;;10.52;4.35;;;9.00;99.90;;;;;;5041100;28;20725;-83
2021/12/17 10:00:07;;;;;;;11.25;4.95;;;9.00;99.90;;;;;;5026014;28;20044;-83
2021/12/17 10:02:32;;;;;;;10.15;4.25;;;9.00;99.90;;;;;;5042179;28;20091;-84
2021/12/17 10:04:58;;;;;;;9.23;4.43;;;9.40;99.90;;;;;;5043488;28;20045;-84
2021/12/17 10:07:29;;;;;;;11.35;4.70;;;10.30;99.90;;;;;;5043554;28;20040;-84
2021/12/17 10:10:00;;;;;;;9.55;4.68;;;9.00;99.90;;;;;;5045870;28;20497;-85
2021/12/17 10:12:33;;;;;;;10.15;4.03;;;9.10;99.90;;;;;;5043210;28;20116;-85
2021/12/17 10:15:10;;;;;;;7.10;4.13;;;9.50;99.90;;;;;;5043358;28;20094;-85
2021/12/17 10:18:00;;;;;;;7.78;3.92;;;9.10;99.90;;;;;;5042997;28;20511;-85
2021/12/17 10:20:29;;;;;;;9.18;4.35;;;9.10;99.90;;;;;;5041354;28;20067;-85
2021/12/17 10:23:07;;;;;;;8.90;3.97;;;9.10;99.90;;;;;;5026579;28;20392;-86
2021/12/17 10:25:36;;;;;;;9.75;4.00;;;9.10;99.90;;;;;;5043033;28;20044;-83
2021/12/17 10:28:05;;;;;;;8.82;3.90;;;10.70;99.90;;;;;;5042395;28;20110;-84
2021/12/17 10:30:36;;;;;;;9.43;3.92;;;9.10;99.90;;;;;;5043213;28;20406;-85
2021/12/17 10:33:08;;;;;;;9.15;3.97;;;9.20;99.90;;;;;;5040650;28;20049;-86
2021/12/17 10:35:38;;;;;;;10.68;3.78;;;9.20;99.90;;;;;;5026186;28;20059;-85
2021/12/17 10:38:08;;;;;;;8.55;3.55;;;9.20;99.90;;;;;;5026816;28;20080;-86
2021/12/17 10:40:40;;;;;;;9.05;3.67;;;10.60;99.90;;;;;;5041376;28;20045;-86
2021/12/17 10:43:20;;;;;;;4.83;2.77;;;9.30;99.90;;;;;;5045023;28;20102;-85
2021/12/17 10:48:48;;;;;;;6.32;3.28;;;9.30;99.90;;;;;;5043548;28;20550;-86
2021/12/17 10:54:11;;;;;;;7.73;2.97;;;9.40;99.90;;;;;;5040881;28;20056;-85
2021/12/17 10:56:42;;;;;;;6.72;3.40;;;9.30;99.90;;;;;;5026836;28;20060;-85
2021/12/17 10:59:18;;;;;;;5.72;3.22;;;9.40;99.90;;;;;;5041977;28;20500;-85
2021/12/17 11:01:59;;;;;;;5.30;3.28;;;9.40;99.90;;;;;;5024893;28;20099;-85
2021/12/17 11:04:27;;;;;;;5.95;2.80;;;9.40;99.90;;;;;;5026822;28;20040;-85
2021/12/17 11:07:01;;;;;;;3.45;2.53;;;10.10;99.90;;;;;;5042269;28;20041;-86
2021/12/17 11:09:50;;;;;;;3.30;2.30;;;10.40;99.90;;;;;;5042461;28;20051;-85
2021/12/17 11:12:28;;;;;;;4.43;2.00;;;9.50;99.90;;;;;;5041502;28;20044;-83
2021/12/17 11:15:06;;;;;;;7.50;2.03;;;9.60;99.90;;;;;;5041710;28;20048;-83
2021/12/17 11:17:32;;;;;;;3.30;2.45;;;9.90;99.90;;;;;;5026348;28;20056;-84
2021/12/17 11:20:00;;;;;;;2.55;2.05;;;9.60;99.90;;;;;;5040155;28;20049;-84
2021/12/17 11:22:29;;;;;;;3.40;1.95;;;9.60;99.90;;;;;;5025678;28;20149;-84
2021/12/17 11:24:56;;;;;;;4.05;1.83;;;9.60;99.90;;;;;;5024874;28;20489;-84
2021/12/17 11:27:22;;;;;;;2.90;1.55;;;9.60;99.90;;;;;;5024816;28;20056;-86
2021/12/17 11:29:49;;;;;;;4.60;1.92;;;11.10;99.90;;;;;;5042181;28;20068;-84
2021/12/17 11:32:15;;;;;;;2.40;1.85;;;9.70;99.90;;;;;;5041603;28;20053;-85
2021/12/17 11:34:42;;;;;;;4.38;1.77;;;10.10;99.90;;;;;;5041965;28;20055;-86
2021/12/17 11:37:08;;;;;;;3.60;2.17;;;9.70;99.90;;;;;;5056687;28;20412;-86
2021/12/17 11:39:42;;;;;;;3.70;1.85;;;11.20;99.90;;;;;;5043177;28;20045;-86
2021/12/17 11:42:18;;;;;;;5.25;2.05;;;9.60;99.90;;;;;;5041790;28;20041;-84
2021/12/17 11:45:22;;;;;;;6.07;2.22;;;9.70;99.90;;;;;;5023437;28;20040;-88
2021/12/17 11:47:39;;;;;;;3.67;1.95;;;9.60;99.90;;;;;;5041762;28;20059;-88
2021/12/17 11:50:07;;;;;;;3.45;1.98;;;10.20;99.90;;;;;;5023369;28;20551;-89
2021/12/17 11:52:32;;;;;;;3.40;1.98;;;9.60;99.90;;;;;;5025232;28;20458;-86
2021/12/17 11:55:30;;;;;;;7.13;1.90;;;9.60;99.90;;;;;;5042819;28;20040;-84
2021/12/17 11:57:59;;;;;;;2.72;1.73;;;9.60;99.90;;;;;;5040589;28;20130;-85
2021/12/17 12:00:45;;;;;;;3.80;1.90;;;9.60;99.90;;;;;;5046270;28;20469;-85
2021/12/17 12:03:25;;;;;;;4.68;2.45;;;9.60;99.90;;;;;;5027617;28;20416;-85
2021/12/17 12:05:56;;;;;;;4.60;3.10;;;9.60;99.90;;;;;;5061294;28;20053;-85
2021/12/17 12:08:29;;;;;;;3.95;2.20;;;9.60;99.90;;;;;;5045789;28;20068;-85
2021/12/17 12:11:16;;;;;;;6.32;2.35;;;9.60;99.90;;;;;;5043562;28;20041;-86
2021/12/17 12:13:47;;;;;;;3.45;2.47;;;9.60;99.90;;;;;;5045283;28;20382;-85
2021/12/17 12:16:24;;;;;;;4.65;2.55;;;9.60;99.90;;;;;;5044412;28;20040;-84
2021/12/17 12:19:07;;;;;;;3.88;2.28;;;10.70;99.90;;;;;;5044668;28;20122;-85
2021/12/17 12:21:35;;;;;;;8.80;2.60;;;9.70;99.90;;;;;;5045552;28;20485;-84
2021/12/17 12:24:13;;;;;;;3.55;2.33;;;9.60;99.90;;;;;;5042879;28;20057;-86
2021/12/17 12:26:49;;;;;;;4.10;2.78;;;9.70;99.90;;;;;;5044911;28;20045;-85
2021/12/17 12:29:20;;;;;;;4.63;3.00;;;11.00;99.90;;;;;;5044285;28;20511;-85
2021/12/17 12:32:00;;;;;;;4.47;2.90;;;9.60;99.90;;;;;;5027118;28;20041;-85
2021/12/17 12:34:32;;;;;;;5.10;2.95;;;9.70;99.90;;;;;;5045236;28;20033;-85
2021/12/17 12:37:07;;;;;;;2.35;1.67;;;9.70;99.90;;;;;;5042631;28;20048;-85
2021/12/17 12:39:42;;;;;;;4.55;2.83;;;9.70;99.90;;;;;;5044617;28;20059;-85
2021/12/17 12:42:24;;;;;;;4.47;2.28;;;9.70;99.90;;;;;;5028061;28;20140;-85
2021/12/17 12:44:49;;;;;;;4.78;3.00;;;9.70;99.90;;;;;;5043069;28;20102;-85
2021/12/17 12:47:25;;;;;;;4.75;2.72;;;9.70;99.90;;;;;;5028175;28;20045;-85
2021/12/17 12:50:04;;;;;;;6.72;3.15;;;9.70;99.90;;;;;;5026593;28;20653;-84
2021/12/17 12:52:45;;;;;;;4.32;2.83;;;10.50;99.90;;;;;;5028160;28;20041;-85
2021/12/17 12:55:17;;;;;;;5.00;2.45;;;9.70;99.90;;;;;;5028254;28;20059;-85
2021/12/17 12:57:45;;;;;;;3.92;2.92;;;9.70;99.90;;;;;;5042405;28;20045;-85
2021/12/17 13:00:19;;;;;;;5.22;3.17;;;9.70;99.90;;;;;;5044314;28;20056;-85
2021/12/17 13:02:48;;;;;;;5.30;3.38;;;9.70;99.90;;;;;;5026983;28;20095;-86
2021/12/17 13:05:14;;;;;;;6.32;3.25;;;9.70;99.90;;;;;;5044677;28;20059;-85
2021/12/17 13:07:42;;;;;;;4.95;2.72;;;9.70;99.90;;;;;;5044093;28;20127;-85
2021/12/17 13:10:13;;;;;;;6.75;2.72;;;9.70;99.90;;;;;;5043354;28;20091;-84
2021/12/17 13:12:40;;;;;;;5.90;3.28;;;9.70;99.90;;;;;;5027889;28;20048;-84
2021/12/17 13:15:38;;;;;;;5.95;3.17;;;11.70;99.90;;;;;;5042922;28;20041;-85
2021/12/17 13:23:23;;;;;;;5.22;3.28;;;8.50;99.90;;;;;;5040929;28;20049;-85
2021/12/17 13:26:04;;;;;;;3.95;2.28;;;9.70;99.90;;;;;;5027120;28;20033;-85
2021/12/17 13:29:00;;;;;;;3.97;3.03;;;9.70;99.90;;;;;;5041277;28;20045;-85
2021/12/17 13:31:54;;;;;;;3.60;2.42;;;9.70;99.90;;;;;;5026822;28;20049;-85
2021/12/17 13:34:37;;;;;;;2.88;2.40;;;9.70;99.90;;;;;;5044199;28;20522;-84
2021/12/17 13:37:05;;;;;;;4.82;2.72;;;9.70;99.90;;;;;;5042685;28;20049;-85
2021/12/17 13:39:35;;;;;;;4.15;3.20;;;9.70;99.90;;;;;;5043450;28;20060;-85
2021/12/17 13:42:02;;;;;;;5.53;3.17;;;9.70;99.90;;;;;;5042958;28;20049;-84
2021/12/17 13:44:33;;;;;;;4.10;2.63;;;9.70;99.90;;;;;;5044134;28;20116;-85
2021/12/17 13:47:28;;;;;;;4.30;2.60;;;9.70;99.90;;;;;;5045569;28;20394;-85
2021/12/17 13:50:05;;;;;;;4.55;2.65;;;9.70;99.90;;;;;;5042300;28;20068;-85
2021/12/17 13:52:33;;;;;;;3.88;2.17;;;9.70;99.90;;;;;;5042746;28;20072;-84
2021/12/17 13:55:02;;;;;;;5.65;2.67;;;9.70;99.90;;;;;;5043303;28;20048;-86
2021/12/17 13:57:30;;;;;;;4.05;2.72;;;9.70;99.90;;;;;;5043483;28;20522;-84
2021/12/17 14:00:18;;;;;;;5.43;3.50;;;10.20;99.90;;;;;;5045186;28;20030;-85
2021/12/17 14:02:46;;;;;;;7.47;4.40;;;9.70;99.90;;;;;;5025064;28;20124;-85
2021/12/17 14:05:28;;;;;;;6.68;4.35;;;9.70;99.90;;;;;;5042821;28;20586;-85
2021/12/17 14:07:59;;;;;;;8.48;4.78;;;9.70;99.90;;;;;;5042588;28;20563;-86
2021/12/17 14:10:31;;;;;;;7.00;3.97;;;9.70;99.90;;;;;;5025254;28;20629;-84
2021/12/17 14:12:57;;;;;;;11.57;4.43;;;9.70;99.90;;;;;;5026547;28;20055;-85
2021/12/17 14:15:34;;;;;;;6.63;3.33;;;11.70;99.90;;;;;;5041934;28;20052;-83
2021/12/17 14:18:07;;;;;;;6.95;2.97;;;9.70;99.90;;;;;;5043185;28;20128;-83
2021/12/17 14:20:44;;;;;;;6.30;3.10;;;9.70;99.90;;;;;;5042298;28;20055;-85
2021/12/17 14:23:14;;;;;;;4.05;2.58;;;10.00;99.90;;;;;;5024813;28;20060;-85
2021/12/17 14:25:44;;;;;;;3.92;2.67;;;9.90;99.90;;;;;;5044461;28;20056;-85
2021/12/17 14:28:31;;;;;;;4.38;2.63;;;9.60;99.90;;;;;;5041085;28;20057;-85
2021/12/17 14:31:03;;;;;;;4.07;2.83;;;9.60;99.90;;;;;;5026202;28;20264;-86
2021/12/17 14:33:39;;;;;;;4.43;2.92;;;9.60;99.90;;;;;;5044119;28;20036;-85
2021/12/17 14:36:13;;;;;;;6.18;3.28;;;9.70;99.90;;;;;;5041935;28;20494;-87
2021/12/17 14:38:44;;;;;;;3.72;2.78;;;9.60;99.90;;;;;;5042786;28;20056;-85
2021/12/17 14:41:42;;;;;;;4.38;2.45;;;9.60;99.90;;;;;;5042700;28;20060;-86
2021/12/17 14:44:22;;;;;;;6.22;3.40;;;9.60;99.90;;;;;;5041921;28;20507;-86
2021/12/17 14:47:02;;;;;;;4.25;3.00;;;9.60;99.90;;;;;;5026258;28;20049;-84
2021/12/17 14:58:54;;;;;;;4.32;3.17;;;11.00;99.90;;;;;;5042475;28;20056;-85
2021/12/17 15:05:28;;;;;;;4.80;3.55;;;9.70;99.90;;;;;;5042518;28;20132;-85
2021/12/17 15:07:56;;;;;;;5.38;2.83;;;9.50;99.90;;;;;;5042562;28;20045;-84
2021/12/17 15:10:23;;;;;;;7.28;4.15;;;10.60;99.90;;;;;;5040841;28;20455;-85
2021/12/17 15:12:56;;;;;;;6.70;4.32;;;9.50;99.90;;;;;;5042825;28;20084;-85
2021/12/17 15:15:26;;;;;;;;;;;9.50;99.90;;;;;;5041233;28;20072;-85
2021/12/17 15:17:55;;;;;;;10.20;4.68;;;9.50;99.90;;;;;;5026012;28;20385;-84
2021/12/17 15:20:25;;;;;;;5.47;4.07;;;9.50;99.90;;;;;;5043884;28;20466;-86
2021/12/17 15:22:52;;;;;;;9.15;4.00;;;9.50;99.90;;;;;;5041695;28;20106;-85
2021/12/17 15:25:19;;;;;;;5.03;3.33;;;9.80;99.90;;;;;;5043902;28;20037;-86
2021/12/17 15:27:46;;;;;;;6.90;3.75;;;9.40;99.90;;;;;;5041141;28;20049;-84
2021/12/17 15:30:17;;;;;;;6.10;3.88;;;9.80;99.90;;;;;;5026118;28;20411;-86
2021/12/17 15:32:43;;;;;;;12.30;3.88;;;9.40;99.90;;;;;;5026175;28;20063;-85
2021/12/17 15:35:12;;;;;;;6.78;3.45;;;9.40;99.90;;;;;;5029725;28;20041;-84
2021/12/17 15:37:39;;;;;;;7.93;4.82;;;9.60;99.90;;;;;;5047577;28;20040;-84
2021/12/17 15:40:07;;;;;;;10.05;4.82;;;9.40;99.90;;;;;;5044747;28;20060;-84
2021/12/17 15:42:33;;;;;;;10.50;4.15;;;9.30;99.90;;;;;;5047893;28;20102;-85
2021/12/17 15:44:59;;;;;;;9.00;4.20;;;9.30;99.90;;;;;;5045236;28;20045;-85
2021/12/17 15:47:24;;;;;;;7.93;4.38;;;9.30;99.90;;;;;;5029221;28;20041;-84
2021/12/17 15:49:50;;;;;;;10.15;4.97;;;10.00;99.90;;;;;;5046231;28;20056;-85
2021/12/17 15:52:16;;;;;;;6.95;3.58;;;9.30;99.90;;;;;;5047117;28;20469;-84
2021/12/17 15:54:43;;;;;;;7.13;4.18;;;9.30;99.90;;;;;;5046839;28;20131;-84
2021/12/17 15:57:09;;;;;;;10.20;4.18;;;9.20;99.90;;;;;;5046117;28;20095;-85
2021/12/17 15:59:35;;;;;;;9.05;4.63;;;9.20;99.90;;;;;;5047555;28;20051;-84
2021/12/17 16:02:03;;;;;;;8.25;5.13;;;9.20;99.90;;;;;;5045154;28;20136;-84
2021/12/17 16:04:34;;;;;;;11.18;4.65;;;9.20;99.90;;;;;;5047452;28;20124;-85
2021/12/17 16:07:01;;;;;;;8.93;4.78;;;9.20;99.90;;;;;;5044600;28;20052;-85
2021/12/17 16:10:25;;;;;;;9.52;4.28;;;10.70;99.90;;;;;;5061954;28;20051;-86
2021/12/17 16:16:52;;;;;;;14.52;4.85;;;9.10;99.90;;;;;;5045209;28;20110;-86